Cmb Virginie — VRIK2 — position and weather

sailwx.info

Track history (hours):
 
Tides and Currents Weather Stations Pressure Air Temp Water Temp Dewpoint Dewpoint Depression Visibility Wind Speed Wind Dir Waves Ship Positions

Cmb Virginie

Last reported at 2018-Apr-23 05:22 UTC. Time now 2018-Jul-17 17:10 UTC.
Position N 01°16' E 103°23'.
Warning: this ship's position is months out of date.

Length 180 m; draft 8.7 m.

Type: Cargo ship. MMSI: 477514600.

Date/timePositionNaut miles runAvg speedWind from/ knotsBaromVisibWave heightAir tempDewpointWater temp
2018-Apr-23 05:22N 01°16' E 103°23'613.3
2018-Apr-23 04:54N 01°14' E 103°28'613.2
2018-Apr-23 04:27N 01°12' E 103°34'4 9.1
2018-Apr-23 03:58N 01°11' E 103°39'4 9.7
2018-Apr-23 03:30N 01°09' E 103°43'4 8.6
2018-Apr-23 02:59N 01°10' E 103°47'510.2
2018-Apr-23 02:30N 01°12' E 103°52'5 9.4
2018-Apr-23 01:59N 01°15' E 103°56'3 0.2
2018-Apr-22 12:24N 01°17' E 103°57'  
2018-Apr-14 06:16N 38°35' E 122°05'713.8
2018-Apr-14 05:47N 38°40' E 121°59'413.7
2018-Apr-14 05:31N 38°42' E 121°55'1113.3
2018-Apr-14 04:41N 38°50' E 121°45'  
Track history (hours):
 
Tides and Currents Weather Stations Pressure Air Temp Water Temp Dewpoint Dewpoint Depression Visibility Wind Speed Wind Dir Waves Ship Positions

Cmb Virginie

Last reported at 2018-Apr-23 05:22 UTC. Time now 2018-Jul-17 17:10 UTC.
Position N 01°16' E 103°23'.
Warning: this ship's position is months out of date.

Length 180 m; draft 8.7 m.

Type: Cargo ship. MMSI: 477514600.

Date/timePositionNaut miles runAvg speedWind from/ knotsBaromVisibWave heightAir tempDewpointWater temp
2018-Apr-23 05:22N 01°16' E 103°23'613.3
2018-Apr-23 04:54N 01°14' E 103°28'613.2
2018-Apr-23 04:27N 01°12' E 103°34'4 9.1
2018-Apr-23 03:58N 01°11' E 103°39'4 9.7
2018-Apr-23 03:30N 01°09' E 103°43'4 8.6
2018-Apr-23 02:59N 01°10' E 103°47'510.2
2018-Apr-23 02:30N 01°12' E 103°52'5 9.4
2018-Apr-23 01:59N 01°15' E 103°56'3 0.2
2018-Apr-22 12:24N 01°17' E 103°57'  
2018-Apr-14 06:16N 38°35' E 122°05'713.8
2018-Apr-14 05:47N 38°40' E 121°59'413.7
2018-Apr-14 05:31N 38°42' E 121°55'1113.3
2018-Apr-14 04:41N 38°50' E 121°45'  

Dump ship's entire track history